createdAt,value
2018-11-13T00:00:47.039Z,13.54
2018-11-13T00:03:15.812Z,13.53
2018-11-13T00:05:45.710Z,13.50
2018-11-13T00:08:14.281Z,13.49
2018-11-13T00:10:42.652Z,13.54
2018-11-13T00:13:10.341Z,13.52
2018-11-13T00:15:38.051Z,13.49
2018-11-13T00:18:05.741Z,13.47
2018-11-13T00:20:33.639Z,13.48
2018-11-13T00:23:01.385Z,13.49
2018-11-13T00:25:29.468Z,13.45
2018-11-13T00:27:57.256Z,13.46
2018-11-13T00:30:25.282Z,13.45
2018-11-13T00:32:52.970Z,13.42
2018-11-13T00:35:21.264Z,13.46
2018-11-13T00:37:49.469Z,13.46
2018-11-13T00:40:17.817Z,13.44
2018-11-13T00:42:46.053Z,13.43
2018-11-13T00:45:13.862Z,13.41
2018-11-13T00:47:41.830Z,13.39
2018-11-13T00:50:12.870Z,13.37
2018-11-13T00:52:41.428Z,13.37
2018-11-13T00:55:09.206Z,13.34
2018-11-13T00:57:37.169Z,13.35
2018-11-13T01:00:09.186Z,13.34
2018-11-13T01:02:36.757Z,13.34
2018-11-13T01:05:07.101Z,13.33
2018-11-13T01:07:34.857Z,13.36
2018-11-13T01:10:02.505Z,13.36
2018-11-13T01:12:30.220Z,13.37
2018-11-13T01:14:57.938Z,13.35
2018-11-13T01:17:25.631Z,13.37
2018-11-13T01:19:53.309Z,13.38
2018-11-13T01:22:21.090Z,13.35
2018-11-13T01:24:48.789Z,13.36
2018-11-13T01:27:16.464Z,13.37
2018-11-13T01:29:52.308Z,13.33
2018-11-13T01:32:20.050Z,13.37
2018-11-13T01:34:47.824Z,13.33
2018-11-13T01:37:15.565Z,13.35
2018-11-13T01:39:43.212Z,13.33
2018-11-13T01:42:10.977Z,13.36
2018-11-13T01:44:38.697Z,13.32
2018-11-13T01:47:06.589Z,13.31
2018-11-13T01:49:34.373Z,13.33
2018-11-13T01:52:01.975Z,13.31
2018-11-13T01:54:29.769Z,13.30
2018-11-13T01:56:57.365Z,13.32
2018-11-13T01:59:25.017Z,13.29
2018-11-13T02:01:52.728Z,13.28
2018-11-13T02:04:20.481Z,13.28
2018-11-13T02:06:48.148Z,13.25
2018-11-13T02:09:15.905Z,13.28
2018-11-13T02:11:43.597Z,13.26
2018-11-13T02:14:11.301Z,13.25
2018-11-13T02:16:39.011Z,13.23
2018-11-13T02:19:06.738Z,13.24
2018-11-13T02:21:34.512Z,13.21
2018-11-13T02:24:02.261Z,13.20
2018-11-13T02:26:29.992Z,13.20
2018-11-13T02:28:57.669Z,13.18
2018-11-13T02:31:25.424Z,13.18
2018-11-13T02:33:53.119Z,13.18
2018-11-13T02:36:20.834Z,13.19
2018-11-13T02:38:48.494Z,13.18
2018-11-13T02:41:16.313Z,13.16
2018-11-13T02:43:43.992Z,13.14
2018-11-13T02:46:11.644Z,13.16
2018-11-13T02:48:39.394Z,13.17
2018-11-13T02:51:07.082Z,13.13
2018-11-13T02:53:34.772Z,13.11
2018-11-13T02:56:02.496Z,13.11
2018-11-13T02:58:30.197Z,13.10
2018-11-13T03:00:57.985Z,13.09
2018-11-13T03:03:25.652Z,13.06
2018-11-13T03:05:53.336Z,13.04
2018-11-13T03:08:21.040Z,13.02
2018-11-13T03:10:48.800Z,13.04
2018-11-13T03:13:16.477Z,12.98
2018-11-13T03:15:44.224Z,12.96
2018-11-13T03:18:11.909Z,12.97
2018-11-13T03:20:39.653Z,12.97
2018-11-13T03:23:07.351Z,12.95
2018-11-13T03:25:35.091Z,12.92
2018-11-13T03:28:02.905Z,12.85
2018-11-13T03:30:30.626Z,12.87
2018-11-13T03:32:58.341Z,12.85
2018-11-13T03:35:26.069Z,12.82
2018-11-13T03:37:53.781Z,12.79
2018-11-13T03:40:21.501Z,12.74
2018-11-13T03:42:49.607Z,12.74
2018-11-13T03:45:17.501Z,12.67
2018-11-13T03:47:45.332Z,12.68
2018-11-13T03:50:16.164Z,12.64
2018-11-13T03:52:44.307Z,12.60
2018-11-13T03:55:12.563Z,12.54
2018-11-13T03:57:41.092Z,12.56
2018-11-13T04:00:11.895Z,12.50
2018-11-13T04:02:40.084Z,12.46
2018-11-13T04:05:09.526Z,12.49
2018-11-13T04:07:43.404Z,12.51
2018-11-13T04:10:12.448Z,12.46
2018-11-13T04:12:40.333Z,12.48
2018-11-13T04:15:10.299Z,12.34
2018-11-13T04:17:38.221Z,12.37
2018-11-13T04:20:08.062Z,12.35
2018-11-13T04:22:35.812Z,12.30
2018-11-13T04:25:03.552Z,12.32
2018-11-13T04:27:31.249Z,12.30
2018-11-13T04:29:59.013Z,12.30
2018-11-13T04:32:26.740Z,12.24
2018-11-13T04:34:54.505Z,12.25
2018-11-13T04:37:22.184Z,12.22
2018-11-13T04:39:50.445Z,12.24
2018-11-13T04:42:18.104Z,12.21
2018-11-13T04:44:45.789Z,12.16
2018-11-13T04:47:13.485Z,12.17
2018-11-13T04:49:41.253Z,12.14
2018-11-13T04:52:09.012Z,12.12
2018-11-13T04:54:36.713Z,12.12
2018-11-13T04:57:05.193Z,12.16
2018-11-13T04:59:32.897Z,12.18
2018-11-13T05:02:00.661Z,12.20
2018-11-13T05:04:28.369Z,12.14
2018-11-13T05:06:56.297Z,12.17
2018-11-13T05:09:24.048Z,12.11
2018-11-13T05:11:51.776Z,12.11
2018-11-13T05:14:19.441Z,12.10
2018-11-13T05:16:47.140Z,12.05
2018-11-13T05:19:14.873Z,12.09
2018-11-13T05:21:42.572Z,12.03
2018-11-13T05:24:10.259Z,12.02
2018-11-13T05:26:37.947Z,12.02
2018-11-13T05:29:05.693Z,12.04
2018-11-13T05:31:33.452Z,12.00
2018-11-13T05:34:01.086Z,11.99
2018-11-13T05:36:28.737Z,12.02
2018-11-13T05:38:56.448Z,12.00
2018-11-13T05:41:24.194Z,12.02
2018-11-13T05:43:51.909Z,11.98
2018-11-13T05:46:19.601Z,12.00
2018-11-13T05:48:47.277Z,12.00
2018-11-13T05:51:15.117Z,11.94
2018-11-13T05:53:42.961Z,11.98
2018-11-13T05:56:10.709Z,11.94
2018-11-13T05:58:38.761Z,11.92
2018-11-13T06:01:06.729Z,11.92
2018-11-13T06:03:34.469Z,11.92
2018-11-13T06:06:02.657Z,11.92
2018-11-13T06:08:30.324Z,11.89
2018-11-13T06:10:58.000Z,11.91
2018-11-13T06:13:25.669Z,11.89
2018-11-13T06:15:53.417Z,11.88
2018-11-13T06:18:21.181Z,11.93
2018-11-13T06:20:48.811Z,11.96
2018-11-13T06:23:16.541Z,11.95
2018-11-13T06:25:44.952Z,11.90
2018-11-13T06:28:12.613Z,11.88
2018-11-13T06:30:40.309Z,11.91
2018-11-13T06:33:08.036Z,11.88
2018-11-13T06:35:35.692Z,11.84
2018-11-13T06:38:03.452Z,11.86
2018-11-13T06:40:31.524Z,11.83
2018-11-13T06:42:59.132Z,11.79
2018-11-13T06:45:26.851Z,11.81
2018-11-13T06:47:54.562Z,11.80
2018-11-13T06:50:22.235Z,11.79
2018-11-13T06:52:50.352Z,11.73
2018-11-13T06:55:22.161Z,11.73
2018-11-13T06:57:50.020Z,11.78
2018-11-13T07:00:17.945Z,11.75
2018-11-13T07:02:45.677Z,11.72
2018-11-13T07:05:14.817Z,11.71
2018-11-13T07:07:42.889Z,11.75
2018-11-13T07:10:12.807Z,11.69
2018-11-13T07:12:41.812Z,11.75
2018-11-13T07:15:11.397Z,11.73
2018-11-13T07:17:39.300Z,11.66
2018-11-13T07:20:07.324Z,11.63
2018-11-13T07:22:35.069Z,11.71
2018-11-13T07:25:02.914Z,11.72
2018-11-13T07:27:35.015Z,11.74
2018-11-13T07:30:03.289Z,11.69
2018-11-13T07:32:31.051Z,11.75
2018-11-13T07:34:58.698Z,11.74
2018-11-13T07:37:26.417Z,11.75
2018-11-13T07:39:54.136Z,11.71
2018-11-13T07:42:21.855Z,11.75
2018-11-13T07:44:49.518Z,11.72
2018-11-13T07:47:17.296Z,11.80
2018-11-13T07:49:44.964Z,11.78
2018-11-13T07:52:12.615Z,11.79
2018-11-13T07:54:41.125Z,11.78
2018-11-13T07:57:08.824Z,11.81
2018-11-13T07:59:36.900Z,11.80
2018-11-13T08:02:04.706Z,11.81
2018-11-13T08:04:33.276Z,11.83
2018-11-13T08:07:01.093Z,11.83
2018-11-13T08:09:28.882Z,11.87
2018-11-13T08:11:56.553Z,11.92
2018-11-13T08:14:24.337Z,11.91
2018-11-13T08:16:52.045Z,11.95
2018-11-13T08:19:19.805Z,11.95
2018-11-13T08:21:47.486Z,11.91
2018-11-13T08:24:15.178Z,11.91
2018-11-13T08:26:42.894Z,11.89
2018-11-13T08:29:10.523Z,11.96
2018-11-13T08:31:38.243Z,12.00
2018-11-13T08:34:05.973Z,11.99
2018-11-13T08:36:33.692Z,11.94
2018-11-13T08:39:01.430Z,12.00
2018-11-13T08:41:29.120Z,12.00
2018-11-13T08:43:56.876Z,12.00
2018-11-13T08:46:24.633Z,12.05
2018-11-13T08:48:52.337Z,12.00
2018-11-13T08:51:20.121Z,12.04
2018-11-13T08:53:47.832Z,12.02
2018-11-13T08:56:15.497Z,11.99
2018-11-13T08:58:43.232Z,11.97
2018-11-13T09:01:10.874Z,12.00
2018-11-13T09:03:38.589Z,12.00
2018-11-13T09:06:06.324Z,12.03
2018-11-13T09:08:34.017Z,11.99
2018-11-13T09:11:01.765Z,12.02
2018-11-13T09:13:29.451Z,12.01
2018-11-13T09:15:57.278Z,12.06
2018-11-13T09:18:24.988Z,12.02
2018-11-13T09:20:52.755Z,11.92
2018-11-13T09:23:20.408Z,12.03
2018-11-13T09:25:48.195Z,12.07
2018-11-13T09:28:15.873Z,12.09
2018-11-13T09:30:43.789Z,12.02
2018-11-13T09:33:11.322Z,12.03
2018-11-13T09:35:42.854Z,12.05
2018-11-13T09:38:10.585Z,12.05
2018-11-13T09:40:38.246Z,12.12
2018-11-13T09:43:05.921Z,12.14
2018-11-13T09:45:33.688Z,12.18
2018-11-13T09:48:01.402Z,12.16
2018-11-13T09:50:29.122Z,12.19
2018-11-13T09:52:56.768Z,12.28
2018-11-13T09:55:24.464Z,12.15
2018-11-13T09:57:52.228Z,12.05
2018-11-13T10:00:22.337Z,12.07
2018-11-13T10:02:52.313Z,11.95
2018-11-13T10:05:20.274Z,11.94
2018-11-13T10:07:48.372Z,11.96
2018-11-13T10:10:16.158Z,12.08
2018-11-13T10:12:43.841Z,12.13
2018-11-13T10:15:14.362Z,12.20
2018-11-13T10:17:42.188Z,12.20
2018-11-13T10:20:11.296Z,12.23
2018-11-13T10:22:39.450Z,12.19
2018-11-13T10:25:08.133Z,12.24
2018-11-13T10:27:35.898Z,12.30
2018-11-13T10:30:06.125Z,12.29
2018-11-13T10:32:33.843Z,12.23
2018-11-13T10:35:01.572Z,12.36
2018-11-13T10:37:29.249Z,12.51
2018-11-13T10:39:57.000Z,12.53
2018-11-13T10:42:24.732Z,12.52
2018-11-13T10:44:52.449Z,12.73
2018-11-13T10:47:20.154Z,12.78
2018-11-13T10:49:47.825Z,12.91
2018-11-13T10:52:15.491Z,12.91
2018-11-13T10:54:43.175Z,12.99
2018-11-13T10:57:10.934Z,13.09
2018-11-13T10:59:38.597Z,13.19
2018-11-13T11:02:11.960Z,13.06
2018-11-13T11:04:41.257Z,13.09
2018-11-13T11:07:09.337Z,13.19
2018-11-13T11:09:37.227Z,13.10
2018-11-13T11:12:05.792Z,13.21
2018-11-13T11:14:33.461Z,13.18
2018-11-13T11:17:01.185Z,13.20
2018-11-13T11:19:29.461Z,13.35
2018-11-13T11:21:57.106Z,13.53
2018-11-13T11:24:24.784Z,13.60
2018-11-13T11:26:52.489Z,13.56
2018-11-13T11:29:20.217Z,13.63
2018-11-13T11:31:47.913Z,13.61
2018-11-13T11:34:15.669Z,13.69
2018-11-13T11:36:43.382Z,13.63
2018-11-13T11:39:11.726Z,13.48
2018-11-13T11:41:39.423Z,13.56
2018-11-13T11:44:07.724Z,13.45
2018-11-13T11:46:35.481Z,13.35
2018-11-13T11:49:03.681Z,13.49
2018-11-13T11:51:32.365Z,13.40
2018-11-13T11:54:00.183Z,13.42
2018-11-13T11:56:27.853Z,13.38
2018-11-13T11:58:55.589Z,13.59
2018-11-13T12:01:23.367Z,13.70
2018-11-13T12:03:53.633Z,13.74
2018-11-13T12:06:21.376Z,13.77
2018-11-13T12:08:49.077Z,14.02
2018-11-13T12:11:16.745Z,14.19
2018-11-13T12:13:44.490Z,14.16
2018-11-13T12:16:12.125Z,14.33
2018-11-13T12:18:39.910Z,14.29
2018-11-13T12:21:07.596Z,14.33
2018-11-13T12:23:35.320Z,14.34
2018-11-13T12:26:03.092Z,14.52
2018-11-13T12:28:30.802Z,14.43
2018-11-13T12:30:58.488Z,14.43
2018-11-13T12:33:26.218Z,14.42
2018-11-13T12:35:54.123Z,14.46
2018-11-13T12:38:21.856Z,14.65
2018-11-13T12:40:49.635Z,14.54
2018-11-13T12:43:17.281Z,14.50
2018-11-13T12:45:44.949Z,14.57
2018-11-13T12:48:12.689Z,14.36
2018-11-13T12:50:46.009Z,14.43
2018-11-13T12:53:13.729Z,14.26
2018-11-13T12:55:41.532Z,14.48
2018-11-13T12:58:09.241Z,14.38
2018-11-13T13:00:36.992Z,14.16
2018-11-13T13:03:04.807Z,14.26
2018-11-13T13:05:32.508Z,14.23
2018-11-13T13:08:00.196Z,14.18
2018-11-13T13:10:27.958Z,14.17
2018-11-13T13:12:55.614Z,14.32
2018-11-13T13:15:23.254Z,14.42
2018-11-13T13:17:50.928Z,14.41
2018-11-13T13:20:21.084Z,14.24
2018-11-13T13:22:49.352Z,14.17
2018-11-13T13:25:18.685Z,14.15
2018-11-13T13:27:46.413Z,14.13
2018-11-13T13:30:16.222Z,14.27
2018-11-13T13:32:44.438Z,14.31
2018-11-13T13:35:53.841Z,14.15
2018-11-13T13:38:21.557Z,14.30
2018-11-13T13:40:50.505Z,14.24
2018-11-13T13:43:18.660Z,14.17
2018-11-13T13:45:47.069Z,14.08
2018-11-13T13:48:15.162Z,14.15
2018-11-13T13:50:42.893Z,14.13
2018-11-13T13:53:11.801Z,14.11
2018-11-13T13:55:39.855Z,14.04
2018-11-13T13:58:07.560Z,14.06
2018-11-13T14:00:35.400Z,13.90
2018-11-13T14:03:03.728Z,13.91
2018-11-13T14:05:31.416Z,13.82
2018-11-13T14:07:59.161Z,13.75
2018-11-13T14:10:26.893Z,13.80
2018-11-13T14:12:54.634Z,13.62
2018-11-13T14:15:22.438Z,13.54
2018-11-13T14:17:50.081Z,13.53
2018-11-13T14:20:19.025Z,13.49
2018-11-13T14:22:46.850Z,13.46
2018-11-13T14:25:14.897Z,13.41
2018-11-13T14:27:42.858Z,13.47
2018-11-13T14:30:16.192Z,13.39
2018-11-13T14:32:44.956Z,13.34
2018-11-13T14:35:13.049Z,13.23
2018-11-13T14:37:40.720Z,13.25
2018-11-13T14:40:13.688Z,13.27
2018-11-13T14:42:41.445Z,13.30
2018-11-13T14:45:09.532Z,13.31
2018-11-13T14:47:37.257Z,13.20
2018-11-13T14:50:08.817Z,13.28
2018-11-13T14:52:36.607Z,13.22
2018-11-13T14:55:07.049Z,13.22
2018-11-13T14:57:34.728Z,13.15
2018-11-13T15:00:02.504Z,13.11
2018-11-13T15:02:30.173Z,13.16
2018-11-13T15:04:57.938Z,13.13
2018-11-13T15:07:27.166Z,12.94
2018-11-13T15:09:53.261Z,13.02
2018-11-13T15:12:21.008Z,12.84
2018-11-13T15:14:48.744Z,12.89
2018-11-13T15:17:16.509Z,12.87
2018-11-13T15:19:44.237Z,12.85
2018-11-13T15:22:12.052Z,12.83
2018-11-13T15:24:39.638Z,12.73
2018-11-13T15:27:07.398Z,12.68
2018-11-13T15:29:35.105Z,12.63
2018-11-13T15:32:02.833Z,12.60
2018-11-13T15:34:30.498Z,12.54
2018-11-13T15:36:58.117Z,12.51
2018-11-13T15:39:25.730Z,12.52
2018-11-13T15:41:53.549Z,12.52
2018-11-13T15:44:21.330Z,12.37
2018-11-13T15:46:49.056Z,12.41
2018-11-13T15:49:16.992Z,12.49
2018-11-13T15:51:44.717Z,12.35
2018-11-13T15:54:12.368Z,12.30
2018-11-13T15:56:40.444Z,12.37
2018-11-13T15:59:08.726Z,12.26
2018-11-13T16:01:36.787Z,12.23
2018-11-13T16:04:04.720Z,12.19
2018-11-13T16:06:32.433Z,12.13
2018-11-13T16:09:00.431Z,12.16
2018-11-13T16:11:28.497Z,12.11
2018-11-13T16:13:56.399Z,12.14
2018-11-13T16:16:24.573Z,12.11
2018-11-13T16:18:52.672Z,11.99
2018-11-13T16:21:20.944Z,12.04
2018-11-13T16:23:49.060Z,11.91
2018-11-13T16:26:16.769Z,11.89
2018-11-13T16:28:44.513Z,11.80
2018-11-13T16:31:13.961Z,11.78
2018-11-13T16:33:41.645Z,11.70
2018-11-13T16:36:09.917Z,11.61
2018-11-13T16:38:37.590Z,11.54
2018-11-13T16:41:05.424Z,11.59
2018-11-13T16:43:33.165Z,11.60
2018-11-13T16:46:00.921Z,11.48
2018-11-13T16:48:28.588Z,11.45
2018-11-13T16:50:56.338Z,11.40
2018-11-13T16:53:24.040Z,11.29
2018-11-13T16:55:55.960Z,11.16
2018-11-13T16:58:24.039Z,11.12
2018-11-13T17:00:51.707Z,11.12
2018-11-13T17:03:19.515Z,11.12
2018-11-13T17:05:47.220Z,11.11
2018-11-13T17:08:14.909Z,10.90
2018-11-13T17:10:43.097Z,10.91
2018-11-13T17:13:10.785Z,10.81
2018-11-13T17:15:38.756Z,10.76
2018-11-13T17:18:06.729Z,10.82
2018-11-13T17:20:34.441Z,10.70
2018-11-13T17:23:02.162Z,10.68
2018-11-13T17:25:31.249Z,10.65
2018-11-13T17:27:59.012Z,10.68
2018-11-13T17:30:28.172Z,10.58
2018-11-13T17:32:57.442Z,10.56
2018-11-13T17:35:26.033Z,10.60
2018-11-13T17:37:54.476Z,10.55
2018-11-13T17:40:24.035Z,10.52
2018-11-13T17:42:53.317Z,10.57
2018-11-13T17:45:24.027Z,10.53
2018-11-13T17:47:51.892Z,10.47
2018-11-13T17:50:22.644Z,10.35
2018-11-13T17:52:50.739Z,10.32
2018-11-13T17:55:18.918Z,10.29
2018-11-13T17:57:48.313Z,10.24
2018-11-13T18:00:39.769Z,10.22
2018-11-13T18:03:09.262Z,10.23
2018-11-13T18:05:37.646Z,10.18
2018-11-13T18:08:06.205Z,10.18
2018-11-13T18:10:35.417Z,10.08
2018-11-13T18:13:03.625Z,10.06
2018-11-13T18:15:31.760Z,10.02
2018-11-13T18:17:59.950Z,9.93
2018-11-13T18:20:30.152Z,9.92
2018-11-13T18:22:57.952Z,9.86
2018-11-13T18:25:25.848Z,9.90
2018-11-13T18:27:54.843Z,9.76
2018-11-13T18:30:23.673Z,9.85
2018-11-13T18:32:51.664Z,9.71
2018-11-13T18:35:20.695Z,9.66
2018-11-13T18:37:49.115Z,9.75
2018-11-13T18:40:17.693Z,9.58
2018-11-13T18:42:46.768Z,9.60
2018-11-13T18:45:17.789Z,9.69
2018-11-13T18:47:45.572Z,9.65
2018-11-13T18:50:17.760Z,9.62
2018-11-13T18:52:45.415Z,9.58
2018-11-13T18:55:13.709Z,9.56
2018-11-13T18:57:41.876Z,9.53
2018-11-13T19:00:15.367Z,9.56
2018-11-13T19:02:43.056Z,9.48
2018-11-13T19:05:11.759Z,9.42
2018-11-13T19:07:39.694Z,9.39
2018-11-13T19:10:32.104Z,9.39
2018-11-13T19:13:01.068Z,9.36
2018-11-13T19:15:30.633Z,9.19
2018-11-13T19:17:58.435Z,9.25
2018-11-13T19:20:26.531Z,9.22
2018-11-13T19:22:54.239Z,9.20
2018-11-13T19:25:26.160Z,9.14
2018-11-13T19:27:54.618Z,9.15
2018-11-13T19:30:22.619Z,8.97
2018-11-13T19:32:50.390Z,9.00
2018-11-13T19:35:18.757Z,9.07
2018-11-13T19:37:47.255Z,8.86
2018-11-13T19:40:19.226Z,8.80
2018-11-13T19:42:48.681Z,8.73
2018-11-13T19:45:17.016Z,8.81
2018-11-13T19:47:44.665Z,8.76
2018-11-13T19:50:14.663Z,8.69
2018-11-13T19:52:42.292Z,8.54
2018-11-13T19:55:15.122Z,8.54
2018-11-13T19:57:43.516Z,8.54
2018-11-13T20:00:19.125Z,8.48
2018-11-13T20:02:48.796Z,8.32
2018-11-13T20:05:16.604Z,8.26
2018-11-13T20:07:44.347Z,8.26
2018-11-13T20:10:22.620Z,8.12
2018-11-13T20:12:51.133Z,8.07
2018-11-13T20:15:19.653Z,8.08
2018-11-13T20:17:48.277Z,8.05
2018-11-13T20:20:18.037Z,7.93
2018-11-13T20:22:46.726Z,8.00
2018-11-13T20:25:15.933Z,8.08
2018-11-13T20:27:43.621Z,8.03
2018-11-13T20:30:16.169Z,8.00
2018-11-13T20:32:43.893Z,7.85
2018-11-13T20:35:12.737Z,7.96
2018-11-13T20:37:41.698Z,8.03
2018-11-13T20:40:11.974Z,7.93
2018-11-13T20:42:40.214Z,7.84
2018-11-13T20:48:05.457Z,7.63
2018-11-13T20:50:33.737Z,7.64
2018-11-13T20:53:02.720Z,7.62
2018-11-13T20:55:30.501Z,7.47
2018-11-13T20:57:58.477Z,7.59
2018-11-13T21:00:28.066Z,7.59
2018-11-13T21:02:56.117Z,7.59
2018-11-13T21:05:24.399Z,7.44
2018-11-13T21:07:52.241Z,7.41
2018-11-13T21:10:21.196Z,7.40
2018-11-13T21:12:50.038Z,7.37
2018-11-13T21:15:18.899Z,7.26
2018-11-13T21:17:46.701Z,7.32
2018-11-13T21:20:15.858Z,7.30
2018-11-13T21:22:43.753Z,7.22
2018-11-13T21:25:12.856Z,7.16
2018-11-13T21:27:41.055Z,7.19
2018-11-13T21:30:12.067Z,7.05
2018-11-13T21:32:40.125Z,7.06
2018-11-13T21:35:09.949Z,6.96
2018-11-13T21:37:38.940Z,6.92
2018-11-13T21:40:09.540Z,7.00
2018-11-13T21:42:37.417Z,6.99
2018-11-13T21:45:06.989Z,7.01
2018-11-13T21:47:36.450Z,6.87
2018-11-13T21:50:07.262Z,6.87
2018-11-13T21:52:36.590Z,6.98
2018-11-13T21:55:06.366Z,7.00
2018-11-13T21:57:34.297Z,6.93
2018-11-13T22:00:01.937Z,6.82
2018-11-13T22:02:30.484Z,6.68
2018-11-13T22:04:58.176Z,6.69
2018-11-13T22:07:25.869Z,6.72
2018-11-13T22:09:53.783Z,6.69
2018-11-13T22:12:21.278Z,6.59
2018-11-13T22:14:48.951Z,6.61
2018-11-13T22:17:16.668Z,6.59
2018-11-13T22:19:44.686Z,6.54
2018-11-13T22:22:12.279Z,6.65
2018-11-13T22:24:39.933Z,6.51
2018-11-13T22:27:07.759Z,6.45
2018-11-13T22:29:35.771Z,6.48
2018-11-13T22:32:03.112Z,6.51
2018-11-13T22:34:30.794Z,6.30
2018-11-13T22:36:58.590Z,6.25
2018-11-13T22:39:26.317Z,6.18
2018-11-13T22:41:54.054Z,6.11
2018-11-13T22:44:21.926Z,6.11
2018-11-13T22:46:49.573Z,6.02
2018-11-13T22:49:17.209Z,5.97
2018-11-13T22:51:44.999Z,5.94
2018-11-13T22:54:12.597Z,5.88
2018-11-13T22:56:40.253Z,5.79
2018-11-13T22:59:07.957Z,5.72
2018-11-13T23:01:35.645Z,5.77
2018-11-13T23:04:03.689Z,5.64
2018-11-13T23:06:31.363Z,5.66
2018-11-13T23:08:59.026Z,5.66
2018-11-13T23:11:26.752Z,5.76
2018-11-13T23:13:54.424Z,5.63
2018-11-13T23:16:22.153Z,5.64
2018-11-13T23:18:49.889Z,5.68
2018-11-13T23:21:17.623Z,5.65
2018-11-13T23:23:45.280Z,5.63
2018-11-13T23:26:13.053Z,5.59
2018-11-13T23:28:42.675Z,5.58
2018-11-13T23:31:10.428Z,5.68
2018-11-13T23:33:38.139Z,5.63
2018-11-13T23:36:05.875Z,5.59
2018-11-13T23:38:33.593Z,5.48
2018-11-13T23:41:01.287Z,5.65
2018-11-13T23:43:29.046Z,5.72
2018-11-13T23:45:56.722Z,5.63
2018-11-13T23:48:24.460Z,5.59
2018-11-13T23:50:52.209Z,5.64
2018-11-13T23:53:19.941Z,5.59
2018-11-13T23:55:47.673Z,5.50
2018-11-13T23:58:15.453Z,5.53
